Map

Track Data

SID SEASON NUMBER BASIN SUBBASIN NAME ISO_TIME NATURE LAT LON WMO_WIND WMO_PRES WMO_AGENCY TRACK_TYPE DIST2LAND LANDFALL IFLAG USA_AGENCY USA_ATCF_ID USA_LAT USA_LON USA_RECORD USA_STATUS USA_WIND USA_PRES USA_SSHS USA_R34_NE USA_R34_SE USA_R34_SW USA_R34_NW USA_R50_NE USA_R50_SE USA_R50_SW USA_R50_NW USA_R64_NE USA_R64_SE USA_R64_SW USA_R64_NW USA_POCI USA_ROCI USA_RMW USA_EYE TOKYO_LAT TOKYO_LON TOKYO_GRADE TOKYO_WIND TOKYO_PRES TOKYO_R50_DIR TOKYO_R50_LONG TOKYO_R50_SHORT TOKYO_R30_DIR TOKYO_R30_LONG TOKYO_R30_SHORT TOKYO_LAND CMA_LAT CMA_LON CMA_CAT CMA_WIND CMA_PRES HKO_LAT HKO_LON HKO_CAT HKO_WIND HKO_PRES NEWDELHI_LAT NEWDELHI_LON NEWDELHI_GRADE NEWDELHI_WIND NEWDELHI_PRES NEWDELHI_CI NEWDELHI_DP NEWDELHI_POCI REUNION_LAT REUNION_LON REUNION_TYPE REUNION_WIND REUNION_PRES REUNION_TNUM REUNION_CI REUNION_RMW REUNION_R34_NE REUNION_R34_SE REUNION_R34_SW REUNION_R34_NW REUNION_R50_NE REUNION_R50_SE REUNION_R50_SW REUNION_R50_NW REUNION_R64_NE REUNION_R64_SE REUNION_R64_SW REUNION_R64_NW BOM_LAT BOM_LON BOM_TYPE BOM_WIND BOM_PRES BOM_TNUM BOM_CI BOM_RMW BOM_R34_NE BOM_R34_SE BOM_R34_SW BOM_R34_NW BOM_R50_NE BOM_R50_SE BOM_R50_SW BOM_R50_NW BOM_R64_NE BOM_R64_SE BOM_R64_SW BOM_R64_NW BOM_ROCI BOM_POCI BOM_EYE BOM_POS_METHOD BOM_PRES_METHOD NADI_LAT NADI_LON NADI_CAT NADI_WIND NADI_PRES WELLINGTON_LAT WELLINGTON_LON WELLINGTON_WIND WELLINGTON_PRES DS824_LAT DS824_LON DS824_STAGE DS824_WIND DS824_PRES TD9636_LAT TD9636_LON TD9636_STAGE TD9636_WIND TD9636_PRES TD9635_LAT TD9635_LON TD9635_WIND TD9635_PRES TD9635_ROCI NEUMANN_LAT NEUMANN_LON NEUMANN_CLASS NEUMANN_WIND NEUMANN_PRES MLC_LAT MLC_LON MLC_CLASS MLC_WIND MLC_PRES USA_GUST BOM_GUST BOM_GUST_PER REUNION_GUST REUNION_GUST_PER USA_SEAHGT USA_SEARAD_NE USA_SEARAD_SE USA_SEARAD_SW USA_SEARAD_NW STORM_SPEED STORM_DIR
1940239N22090 1940 53 NI BB NOT_NAMED 1940-08-26 00:00:00 TS 21.8000 89.6000 main 10 10 _________O____ -1 21.8000 89.6000 TC 30 1 270
1940239N22090 1940 53 NI BB NOT_NAMED 1940-08-26 03:00:00 TS 21.8000 89.5483 main 0 0 _________PO___ -1 21.8000 89.5225 TC 30 21.8000 89.6000 1 2 272
1940239N22090 1940 53 NI BB NOT_NAMED 1940-08-26 06:00:00 TS 21.8044 89.4213 main 0 0 _________OP___ -1 21.8000 89.4000 TC 30 21.8110 89.4532 1 3 272
1940239N22090 1940 53 NI BB NOT_NAMED 1940-08-26 09:00:00 TS 21.8076 89.2494 main 0 0 _________PP___ -1 21.8000 89.2075 TC 30 21.8176 89.3052 1 3 271
1940239N22090 1940 53 NI BB NOT_NAMED 1940-08-26 12:00:00 TS 21.8077 89.0772 main 0 0 _________OP___ -1 21.8000 89.0000 TC 30 21.8153 89.1545 1 3 269
1940239N22090 1940 53 NI BB NOT_NAMED 1940-08-26 15:00:00 TS 21.8000 88.9212 main 0 0 _________PO___ -1 21.8000 88.8425 TC 30 21.8000 89.0000 1 3 266
1940239N22090 1940 53 NI BB NOT_NAMED 1940-08-26 18:00:00 TS 21.7858 88.7709 main 0 0 _________OP___ -1 21.8000 88.7000 TC 30 21.7716 88.8417 1 3 262
1940239N22090 1940 53 NI BB NOT_NAMED 1940-08-26 21:00:00 TS 21.7625 88.6173 main 0 0 _________PP___ -1 21.7775 88.5499 TC 30 21.7475 88.6847 1 3 268
1940239N22090 1940 53 NI BB NOT_NAMED 1940-08-27 00:00:00 TS 21.7748 88.4677 main 0 0 _________OP___ -1 21.8000 88.4000 TC 30 21.7497 88.5354 1 3 289
1940239N22090 1940 53 NI BB NOT_NAMED 1940-08-27 03:00:00 TS 21.8600 88.3175 main 0 0 _________PO___ -1 21.9200 88.2351 TC 30 21.8000 88.4000 1 4 313
1940239N22090 1940 53 NI BB NOT_NAMED 1940-08-27 06:00:00 TS 22.0143 88.1909 main 0 0 _________OP___ -1 22.1000 88.1000 TC 30 21.9287 88.2817 1 4 330
1940239N22090 1940 53 NI BB NOT_NAMED 1940-08-27 09:00:00 TS 22.2025 88.1063 main 0 0 _________PP___ -1 22.3000 88.0350 TC 30 22.1049 88.1777 1 4 340
1940239N22090 1940 53 NI BB NOT_NAMED 1940-08-27 12:00:00 TS 22.4019 88.0424 main 0 0 _________OP___ -1 22.5000 88.0000 TC 30 22.3037 88.0848 1 4 343
1940239N22090 1940 53 NI BB NOT_NAMED 1940-08-27 15:00:00 TS 22.5787 87.9787 main 0 0 _________PO___ -1 22.6575 87.9575 TC 30 22.5000 88.0000 1 3 344
1940239N22090 1940 53 NI BB NOT_NAMED 1940-08-27 18:00:00 TS 22.7304 87.9371 main 0 0 _________OP___ -1 22.8000 87.9000 TC 30 22.6608 87.9742 1 3 347
1940239N22090 1940 53 NI BB NOT_NAMED 1940-08-27 21:00:00 TS 22.8820 87.8995 main 0 0 _________PP___ -1 22.9498 87.8523 TC 30 22.8142 87.9467 1 3 336
1940239N22090 1940 53 NI BB NOT_NAMED 1940-08-28 00:00:00 TS 23.0303 87.7855 main 0 0 _________OP___ -1 23.1000 87.7000 TC 30 22.9605 87.8710 1 5 311
1940239N22090 1940 53 NI BB NOT_NAMED 1940-08-28 03:00:00 TS 23.1788 87.5263 main 0 0 _________PO___ -1 23.2576 87.3526 TC 30 23.1000 87.7000 1 7 296
1940239N22090 1940 53 NI BB NOT_NAMED 1940-08-28 06:00:00 TS 23.3164 87.1359 main 0 0 _________OP___ -1 23.4000 86.9000 TC 30 23.2328 87.3718 1 8 288
1940239N22090 1940 53 NI BB NOT_NAMED 1940-08-28 09:00:00 TS 23.4329 86.6988 main 0 0 _________PP___ -1 23.5075 86.4499 TC 30 23.3584 86.9477 1 9 285
1940239N22090 1940 53 NI BB NOT_NAMED 1940-08-28 12:00:00 TS 23.5398 86.2374 main 0 0 _________OP___ -1 23.6000 86.0000 TC 30 23.4796 86.4748 1 9 284
1940239N22090 1940 53 NI BB NOT_NAMED 1940-08-28 15:00:00 TS 23.6462 85.7962 main 0 0 _________PO___ -1 23.6923 85.5924 TC 30 23.6000 86.0000 1 8 286
1940239N22090 1940 53 NI BB NOT_NAMED 1940-08-28 18:00:00 TS 23.7584 85.3841 main 0 0 _________OP___ -1 23.8000 85.2000 TC 30 23.7169 85.5682 1 8 288
1940239N22090 1940 53 NI BB NOT_NAMED 1940-08-28 21:00:00 TS 23.8888 84.9624 main 0 0 _________PP___ -1 23.9425 84.7776 TC 30 23.8351 85.1472 1 8 290
1940239N22090 1940 53 NI BB NOT_NAMED 1940-08-29 00:00:00 TS 24.0304 84.5763 main 0 0 _________OP___ -1 24.1000 84.4000 TC 30 23.9607 84.7526 1 7 294
1940239N22090 1940 53 NI BB NOT_NAMED 1940-08-29 03:00:00 TS 24.1712 84.2637 main 0 0 _________PO___ -1 24.2423 84.1273 TC 30 24.1000 84.4000 1 6 300
1940239N22090 1940 53 NI BB NOT_NAMED 1940-08-29 06:00:00 TS 24.3301 83.9973 main 0 0 _________OP___ -1 24.4000 83.9000 TC 30 24.2602 84.0945 1 6 306
1940239N22090 1940 53 NI BB NOT_NAMED 1940-08-29 09:00:00 TS 24.5172 83.7374 main 0 0 _________PP___ -1 24.6000 83.6425 TC 30 24.4345 83.8323 1 6 310
1940239N22090 1940 53 NI BB NOT_NAMED 1940-08-29 12:00:00 TS 24.7083 83.5020 main 0 0 _________OP___ -1 24.8000 83.4000 TC 30 24.6166 83.6039 1 5 312
1940239N22090 1940 53 NI BB NOT_NAMED 1940-08-29 15:00:00 TS 24.8750 83.2924 main 0 0 _________PO___ -1 24.9500 83.1849 TC 30 24.8000 83.4000 1 5 313
1940239N22090 1940 53 NI BB NOT_NAMED 1940-08-29 18:00:00 TS 25.0312 83.1212 main 0 0 _________OP___ -1 25.1000 83.0000 TC 30 24.9796 83.2120 1 5 318
1940239N22090 1940 53 NI BB NOT_NAMED 1940-08-29 21:00:00 TS 25.2082 82.9582 main 0 0 _________PP___ -1 25.2875 82.8426 TC 30 25.1553 83.0353 1 5 322
1940239N22090 1940 53 NI BB NOT_NAMED 1940-08-30 00:00:00 TS 25.3856 82.8106 main 0 0 _________OP___ -1 25.5000 82.7000 TC 30 25.3283 82.8659 1 4 321
1940239N22090 1940 53 NI BB NOT_NAMED 1940-08-30 03:00:00 NR 25.5000 82.7000 main 0 __________O___ -1 TC 25.5000 82.7000 1 3 321

About IBTrACS Database

This database is a web-friendly format of International Best Track Archive for Climate Stewardship (IBTrACS), a global best track data archive curated by NOAA dating back to 1842.

Updated: 2021-12-03